createdAt,value
2022-08-01T00:00:04.814Z,22.70
2022-08-01T00:05:14.957Z,22.71
2022-08-01T00:10:36.232Z,22.69
2022-08-01T00:15:58.372Z,22.68
2022-08-01T00:21:06.316Z,22.66
2022-08-01T00:26:18.679Z,22.64
2022-08-01T00:31:25.520Z,22.65
2022-08-01T00:36:40.526Z,22.64
2022-08-01T00:41:48.390Z,22.65
2022-08-01T00:47:08.999Z,22.64
2022-08-01T00:52:39.877Z,22.58
2022-08-01T00:58:04.709Z,22.54
2022-08-01T01:08:50.659Z,22.44
2022-08-01T01:14:06.629Z,22.40
2022-08-01T01:19:37.215Z,22.43
2022-08-01T01:25:08.492Z,22.41
2022-08-01T01:30:41.602Z,22.41
2022-08-01T01:35:56.377Z,22.40
2022-08-01T01:41:11.321Z,22.39
2022-08-01T01:46:25.250Z,22.38
2022-08-01T01:51:40.999Z,22.40
2022-08-01T01:57:02.315Z,22.38
2022-08-01T02:02:23.222Z,22.37
2022-08-01T02:07:31.340Z,22.35
2022-08-01T02:12:46.875Z,22.32
2022-08-01T02:17:57.896Z,22.24
2022-08-01T02:23:18.296Z,22.16
2022-08-01T02:28:29.895Z,22.17
2022-08-01T02:33:46.095Z,22.15
2022-08-01T02:39:00.979Z,22.13
2022-08-01T02:44:19.666Z,22.05
2022-08-01T02:49:46.303Z,22.04
2022-08-01T02:55:02.847Z,22.00
2022-08-01T03:00:25.103Z,22.01
2022-08-01T03:05:34.029Z,22.03
2022-08-01T03:10:58.326Z,22.05
2022-08-01T03:16:07.011Z,21.99
2022-08-01T03:21:34.643Z,22.00
2022-08-01T03:26:55.848Z,21.99
2022-08-01T03:32:28.071Z,22.00
2022-08-01T03:38:15.259Z,21.99
2022-08-01T03:43:22.497Z,21.95
2022-08-01T03:54:17.677Z,21.97
2022-08-01T03:59:36.842Z,21.97
2022-08-01T04:04:44.943Z,21.98
2022-08-01T04:09:53.480Z,22.01
2022-08-01T04:15:06.101Z,22.01
2022-08-01T04:20:17.143Z,22.04
2022-08-01T04:25:35.607Z,22.10
2022-08-01T04:30:46.915Z,22.10
2022-08-01T04:36:11.369Z,22.11
2022-08-01T04:41:27.167Z,22.16
2022-08-01T04:46:42.845Z,22.15
2022-08-01T04:52:00.160Z,22.18
2022-08-01T04:57:08.792Z,22.18
2022-08-01T05:02:17.426Z,22.20
2022-08-01T05:07:33.743Z,22.21
2022-08-01T05:12:59.424Z,22.24
2022-08-01T05:18:05.559Z,22.30
2022-08-01T05:23:16.606Z,22.39
2022-08-01T05:28:38.125Z,22.51
2022-08-01T05:33:47.227Z,22.77
2022-08-01T05:44:11.710Z,25.03
2022-08-01T05:49:19.018Z,24.82
2022-08-01T05:54:25.637Z,24.95
2022-08-01T05:59:33.981Z,24.95
2022-08-01T06:04:40.301Z,24.94
2022-08-01T06:09:48.331Z,25.02
2022-08-01T06:15:00.966Z,25.14
2022-08-01T06:20:14.789Z,25.13
2022-08-01T06:25:26.735Z,25.09
2022-08-01T06:30:41.711Z,24.96
2022-08-01T06:35:55.912Z,24.97
2022-08-01T06:41:06.417Z,24.97
2022-08-01T06:46:12.419Z,25.08
2022-08-01T06:51:19.468Z,25.25
2022-08-01T06:56:27.675Z,25.53
2022-08-01T07:01:37.597Z,25.56
2022-08-01T07:06:46.587Z,25.50
2022-08-01T07:12:00.478Z,25.28
2022-08-01T07:17:26.542Z,25.29
2022-08-01T07:22:33.482Z,25.44
2022-08-01T07:27:46.848Z,25.89
2022-08-01T07:32:55.708Z,25.89
2022-08-01T07:38:02.018Z,25.70
2022-08-01T07:43:09.247Z,25.38
2022-08-01T07:48:17.419Z,25.00
2022-08-01T07:53:27.070Z,24.78
2022-08-01T07:58:49.668Z,24.73
2022-08-01T08:04:07.222Z,24.86
2022-08-01T08:09:16.786Z,25.12
2022-08-01T08:14:37.226Z,25.45
2022-08-01T08:19:47.980Z,25.65
2022-08-01T08:25:05.667Z,26.09
2022-08-01T08:30:30.556Z,26.37
2022-08-01T08:41:05.646Z,26.55
2022-08-01T08:46:28.180Z,26.50
2022-08-01T08:52:01.538Z,26.52
2022-08-01T08:57:12.425Z,26.56
2022-08-01T09:02:24.753Z,26.66
2022-08-01T09:07:39.523Z,26.91
2022-08-01T09:18:35.716Z,26.77
2022-08-01T09:23:53.645Z,26.85
2022-08-01T09:29:38.108Z,27.19
2022-08-01T09:34:49.366Z,27.20
2022-08-01T09:40:07.871Z,27.02
2022-08-01T09:45:41.739Z,26.89
2022-08-01T09:50:52.714Z,27.05
2022-08-01T09:56:16.231Z,27.36
2022-08-01T10:01:48.376Z,27.14
2022-08-01T10:07:13.527Z,27.10
2022-08-01T10:12:25.498Z,27.00
2022-08-01T10:23:06.005Z,27.21
2022-08-01T10:28:32.537Z,27.32
2022-08-01T10:33:52.307Z,27.32
2022-08-01T10:39:03.188Z,27.66
2022-08-01T10:44:11.897Z,28.01
2022-08-01T10:49:23.276Z,28.16
2022-08-01T10:54:33.795Z,28.19
2022-08-01T11:05:34.269Z,28.06
2022-08-01T11:10:44.863Z,28.05
2022-08-01T11:16:50.010Z,28.35
2022-08-01T11:22:17.126Z,28.39
2022-08-01T11:28:05.785Z,28.56
2022-08-01T11:33:18.072Z,28.51
2022-08-01T11:38:35.117Z,28.60
2022-08-01T11:44:01.223Z,28.80
2022-08-01T11:49:45.231Z,28.72
2022-08-01T11:55:24.618Z,28.65
2022-08-01T12:00:43.870Z,28.74
2022-08-01T12:11:43.663Z,28.70
2022-08-01T12:17:16.125Z,28.60
2022-08-01T12:22:31.770Z,28.42
2022-08-01T12:27:43.077Z,28.32
2022-08-01T12:33:06.536Z,28.07
2022-08-01T12:44:22.092Z,28.29
2022-08-01T12:50:03.093Z,28.15
2022-08-01T12:55:22.264Z,28.25
2022-08-01T13:00:46.506Z,28.16
2022-08-01T13:06:04.497Z,28.16
2022-08-01T13:11:15.773Z,28.03
2022-08-01T13:16:55.197Z,27.93
2022-08-01T13:22:02.283Z,27.87
2022-08-01T13:27:28.624Z,27.84
2022-08-01T13:32:51.129Z,27.86
2022-08-01T13:38:30.632Z,27.92
2022-08-01T13:43:58.673Z,27.93
2022-08-01T13:49:15.910Z,28.03
2022-08-01T13:54:22.530Z,27.94
2022-08-01T13:59:27.141Z,27.93
2022-08-01T14:04:43.827Z,27.88
2022-08-01T14:10:20.653Z,27.81
2022-08-01T14:15:37.311Z,27.88
2022-08-01T14:20:59.336Z,27.83
2022-08-01T14:26:12.575Z,27.78
2022-08-01T14:31:57.000Z,27.78
2022-08-01T14:37:29.127Z,27.67
2022-08-01T14:42:41.713Z,27.50
2022-08-01T14:48:02.222Z,27.48
2022-08-01T14:53:12.399Z,27.43
2022-08-01T14:58:18.427Z,27.35
2022-08-01T15:03:29.051Z,27.20
2022-08-01T15:08:59.305Z,27.14
2022-08-01T15:14:20.909Z,27.07
2022-08-01T15:19:32.256Z,26.97
2022-08-01T15:24:40.261Z,26.92
2022-08-01T15:29:47.879Z,26.88
2022-08-01T15:34:58.818Z,26.77
2022-08-01T15:40:05.366Z,26.63
2022-08-01T15:45:44.600Z,26.59
2022-08-01T15:50:52.749Z,26.49
2022-08-01T15:56:21.070Z,26.46
2022-08-01T16:01:43.880Z,26.40
2022-08-01T16:06:50.651Z,26.43
2022-08-01T16:12:19.103Z,26.38
2022-08-01T16:17:44.466Z,26.41
2022-08-01T16:23:09.063Z,26.35
2022-08-01T16:28:25.926Z,26.28
2022-08-01T16:34:05.177Z,26.23
2022-08-01T16:39:21.003Z,26.22
2022-08-01T16:44:41.743Z,26.19
2022-08-01T16:50:05.230Z,26.21
2022-08-01T16:55:49.824Z,26.22
2022-08-01T17:01:58.583Z,26.12
2022-08-01T17:06:53.565Z,26.10
2022-08-01T17:12:11.468Z,26.02
2022-08-01T17:17:24.740Z,25.95
2022-08-01T17:22:33.066Z,25.87
2022-08-01T17:27:41.863Z,25.79
2022-08-01T17:32:58.519Z,25.73
2022-08-01T17:38:07.200Z,25.67
2022-08-01T17:43:12.198Z,25.59
2022-08-01T17:48:22.535Z,25.46
2022-08-01T17:53:27.373Z,25.37
2022-08-01T18:04:02.789Z,25.22
2022-08-01T18:09:19.534Z,25.13
2022-08-01T18:14:41.293Z,25.03
2022-08-01T18:20:03.858Z,24.94
2022-08-01T18:25:15.569Z,24.85
2022-08-01T18:30:20.115Z,24.77
2022-08-01T18:35:52.101Z,24.71
2022-08-01T18:41:23.247Z,24.59
2022-08-01T18:46:38.040Z,24.53
2022-08-01T18:51:52.709Z,24.44
2022-08-01T18:57:08.703Z,24.35
2022-08-01T19:02:19.896Z,24.22
2022-08-01T19:07:53.874Z,24.13
2022-08-01T19:13:25.614Z,24.00
2022-08-01T19:18:35.243Z,23.88
2022-08-01T19:24:02.174Z,23.75
2022-08-01T19:29:35.238Z,23.63
2022-08-01T19:40:32.473Z,23.41
2022-08-01T19:45:49.805Z,23.29
2022-08-01T19:51:04.084Z,23.21
2022-08-01T19:56:13.868Z,23.15
2022-08-01T20:01:23.790Z,23.10
2022-08-01T20:06:36.180Z,23.04
2022-08-01T20:11:50.531Z,22.96
2022-08-01T20:17:00.059Z,22.86
2022-08-01T20:22:13.964Z,22.85
2022-08-01T20:27:33.927Z,22.91
2022-08-01T20:32:43.099Z,22.90
2022-08-01T20:38:05.603Z,22.89
2022-08-01T20:43:23.881Z,22.81
2022-08-01T20:48:35.740Z,22.74
2022-08-01T20:54:02.374Z,22.67
2022-08-01T20:59:55.354Z,22.60
2022-08-01T21:05:11.785Z,22.50
2022-08-01T21:10:28.374Z,22.41
2022-08-01T21:16:23.928Z,22.34
2022-08-01T21:21:41.545Z,22.23
2022-08-01T21:27:11.262Z,22.13
2022-08-01T21:32:36.302Z,22.05
2022-08-01T21:37:52.147Z,21.97
2022-08-01T21:43:17.520Z,21.92
2022-08-01T21:48:30.719Z,21.83
2022-08-01T21:53:52.740Z,21.76
2022-08-01T21:59:12.270Z,21.68
2022-08-01T22:04:30.645Z,21.62
2022-08-01T22:09:36.367Z,21.57
2022-08-01T22:14:49.290Z,21.50
2022-08-01T22:20:03.822Z,21.46
2022-08-01T22:25:17.886Z,21.40
2022-08-01T22:30:29.187Z,21.33
2022-08-01T22:35:48.884Z,21.28
2022-08-01T22:40:59.081Z,21.22
2022-08-01T22:46:41.002Z,21.25
2022-08-01T22:51:59.947Z,21.32
2022-08-01T22:57:10.629Z,21.37
2022-08-01T23:02:50.266Z,21.42
2022-08-01T23:08:14.661Z,21.45
2022-08-01T23:13:26.290Z,21.47
2022-08-01T23:18:35.901Z,21.50
2022-08-01T23:24:09.728Z,21.52
2022-08-01T23:29:29.889Z,21.54
2022-08-01T23:34:39.647Z,21.52
2022-08-01T23:39:46.697Z,21.49
2022-08-01T23:44:55.980Z,21.48
2022-08-01T23:50:09.512Z,21.44
2022-08-01T23:55:33.989Z,21.45
